Time;durP1;ratioP1;P1;durP2;ratioP2;P2;SDS_P1;SDS_P2;PMS_P1;PMS_P2;Temp;Humidity;BMP_temperature;BMP_pressure;BME280_temperature;BME280_humidity;BME280_pressure;Samples;Min_cycle;Max_cycle;Signal;HPM_P1;HPM_P2
2022/07/13 00:01:20;;;;;;;;;4.00;4.00;;;;;25.76;38.66;101698.47;5061242;28;45425;-75
2022/07/13 00:03:45;;;;;;;;;3.67;3.67;;;;;25.65;38.24;101683.91;5061437;28;52090;-75
2022/07/13 00:06:10;;;;;;;;;4.00;4.00;;;;;25.61;37.91;101690.13;5061357;28;45283;-75
2022/07/13 00:08:36;;;;;;;;;2.00;2.00;;;;;25.52;38.37;101692.41;5061515;28;45299;-73
2022/07/13 00:11:01;;;;;;;;;4.00;4.00;;;;;25.44;38.65;101691.78;5061396;28;46195;-72
2022/07/13 00:13:26;;;;;;;;;4.00;4.00;;;;;25.37;38.37;101693.03;5058634;28;53253;-73
2022/07/13 00:15:53;;;;;;;;;4.67;4.67;;;;;25.20;38.83;101681.13;5063596;28;45266;-72
2022/07/13 00:18:18;;;;;;;;;4.00;3.67;;;;;25.18;39.37;101685.19;5064105;28;45398;-73
2022/07/13 00:20:45;;;;;;;;;2.33;2.00;;;;;25.06;39.00;101682.56;5061427;28;45355;-72
2022/07/13 00:23:10;;;;;;;;;3.00;3.00;;;;;25.01;38.61;101682.47;5060866;28;46922;-72
2022/07/13 00:25:35;;;;;;;;;2.67;2.67;;;;;24.97;38.70;101693.03;5061303;28;45339;-72
2022/07/13 00:28:01;;;;;;;;;4.00;4.00;;;;;24.89;38.89;101682.56;5061296;28;45552;-72
2022/07/13 00:30:26;;;;;;;;;4.00;4.00;;;;;24.85;39.04;101690.38;5060700;28;45513;-72
2022/07/13 00:32:51;;;;;;;;;6.00;6.00;;;;;24.75;39.43;101679.34;5061008;28;46428;-72
2022/07/13 00:35:17;;;;;;;;;6.00;5.00;;;;;24.73;40.13;101684.22;5061114;28;45323;-72
2022/07/13 00:37:43;;;;;;;;;4.33;4.33;;;;;24.66;40.54;101676.22;5061151;28;45848;-72
2022/07/13 00:40:09;;;;;;;;;6.00;6.00;;;;;24.60;41.29;101680.75;5060786;28;45448;-72
2022/07/13 00:42:34;;;;;;;;;5.00;5.00;;;;;24.51;40.95;101674.91;5060593;28;46202;-72
2022/07/13 00:45:00;;;;;;;;;6.33;6.33;;;;;24.48;41.46;101671.88;5061077;28;45366;-72
2022/07/13 00:47:34;;;;;;;;;4.67;4.67;;;;;24.42;42.02;101668.25;5042461;28;45508;-72
2022/07/13 00:50:00;;;;;;;;;8.00;6.00;;;;;24.44;41.41;101682.38;5060461;28;45725;-72
2022/07/13 00:52:26;;;;;;;;;8.67;7.67;;;;;24.42;41.31;101677.19;5060554;28;46771;-74
2022/07/13 00:54:52;;;;;;;;;9.00;7.67;;;;;24.40;41.98;101675.81;5060944;28;45359;-75
2022/07/13 00:57:18;;;;;;;;;10.33;9.00;;;;;24.37;41.95;101677.13;5060906;28;45346;-75
2022/07/13 00:59:44;;;;;;;;;8.67;8.67;;;;;24.38;42.18;101680.63;5060497;28;45529;-75
2022/07/13 01:02:09;;;;;;;;;11.00;10.00;;;;;24.33;42.62;101678.66;5060148;28;46478;-75
2022/07/13 01:04:35;;;;;;;;;9.00;8.33;;;;;24.28;42.82;101676.69;5060444;28;45300;-75
2022/07/13 01:07:00;;;;;;;;;11.00;9.67;;;;;24.30;43.08;101687.31;5026005;28;45318;-75
2022/07/13 01:09:26;;;;;;;;;10.00;10.00;;;;;24.24;43.12;101674.72;5038867;28;46780;-74
2022/07/13 01:11:52;;;;;;;;;9.00;9.00;;;;;24.26;42.61;101672.56;5046103;28;45696;-75
2022/07/13 01:14:18;;;;;;;;;10.00;10.00;;;;;24.19;42.72;101662.66;5039024;28;45818;-75
2022/07/13 01:16:44;;;;;;;;;12.00;11.00;;;;;24.26;42.74;101673.41;5058407;28;45407;-75
2022/07/13 01:19:13;;;;;;;;;10.67;10.33;;;;;24.24;42.99;101674.72;5032345;28;48088;-75
2022/07/13 01:21:45;;;;;;;;;10.67;10.67;;;;;24.17;42.99;101670.25;5060134;28;46324;-75
2022/07/13 01:24:13;;;;;;;;;8.67;8.67;;;;;24.16;43.02;101673.22;5060233;28;45375;-74
2022/07/13 01:26:39;;;;;;;;;8.33;8.00;;;;;24.09;43.58;101666.00;5042200;28;45213;-75
2022/07/13 01:29:06;;;;;;;;;7.00;7.00;;;;;24.02;43.59;101664.50;5060290;28;45525;-74
2022/07/13 01:31:33;;;;;;;;;7.00;7.00;;;;;23.99;44.31;101667.69;5059942;28;45520;-72
2022/07/13 01:33:58;;;;;;;;;8.00;7.00;;;;;23.91;43.84;101666.22;5060057;28;45315;-72
2022/07/13 01:36:24;;;;;;;;;6.67;6.67;;;;;23.87;44.23;101665.03;5060208;28;45468;-72
2022/07/13 01:38:49;;;;;;;;;8.67;7.33;;;;;23.75;43.87;101663.19;5059610;28;45640;-72
2022/07/13 01:41:16;;;;;;;;;7.67;7.67;;;;;23.75;44.34;101676.75;5059871;28;45787;-73
2022/07/13 01:43:43;;;;;;;;;6.00;6.00;;;;;23.72;44.43;101677.25;5060044;28;45300;-72
2022/07/13 01:46:10;;;;;;;;;8.00;8.00;;;;;23.65;44.06;101665.72;5059822;28;45228;-72
2022/07/13 01:48:35;;;;;;;;;6.67;6.67;;;;;23.63;44.39;101676.81;5048592;28;45812;-72
2022/07/13 01:51:00;;;;;;;;;8.67;8.33;;;;;23.55;44.37;101663.59;5059722;28;45493;-74
2022/07/13 01:53:25;;;;;;;;;9.67;7.33;;;;;23.52;44.89;101669.53;5059810;28;45233;-75
2022/07/13 01:55:51;;;;;;;;;8.00;8.00;;;;;23.49;44.93;101673.53;5052699;28;45249;-75
2022/07/13 01:58:16;;;;;;;;;8.00;8.00;;;;;23.52;45.04;101673.03;5044344;28;47217;-75
2022/07/13 02:00:41;;;;;;;;;7.33;7.00;;;;;23.50;45.18;101672.47;5059555;28;45571;-75
2022/07/13 02:03:07;;;;;;;;;8.33;8.00;;;;;23.53;45.18;101676.59;5059684;28;45477;-75
2022/07/13 02:05:32;;;;;;;;;6.67;6.67;;;;;23.50;45.20;101675.19;5059857;28;45221;-75
2022/07/13 02:07:57;;;;;;;;;7.00;7.00;;;;;23.44;45.25;101660.66;5059475;28;45181;-72
2022/07/13 02:10:34;;;;;;;;;7.67;7.67;;;;;23.44;45.83;101665.28;5041328;28;48135;-72
2022/07/13 02:13:00;;;;;;;;;8.00;7.33;;;;;23.44;45.43;101663.38;5059400;28;45427;-72
2022/07/13 02:15:25;;;;;;;;;7.00;7.00;;;;;23.46;45.75;101663.16;5059648;28;45396;-72
2022/07/13 02:17:51;;;;;;;;;7.33;7.33;;;;;23.47;45.14;101662.09;5064617;28;45324;-72
2022/07/13 02:20:16;;;;;;;;;7.33;6.33;;;;;23.46;45.73;101657.72;5041059;28;46704;-75
2022/07/13 02:22:43;;;;;;;;;8.00;8.00;;;;;23.48;45.56;101650.19;5059485;28;45359;-75
2022/07/13 02:25:09;;;;;;;;;5.67;5.67;;;;;23.49;46.17;101649.09;5059515;28;45307;-75
2022/07/13 02:27:35;;;;;;;;;8.00;7.00;;;;;23.50;46.31;101647.22;5047489;28;47117;-75
2022/07/13 02:30:00;;;;;;;;;7.33;7.00;;;;;23.48;46.47;101644.75;5057779;28;46368;-75
2022/07/13 02:32:25;;;;;;;;;8.67;8.67;;;;;23.50;46.11;101649.94;5059187;28;45260;-75
2022/07/13 02:34:51;;;;;;;;;6.00;5.33;;;;;23.50;46.25;101637.22;5059468;28;45250;-74
2022/07/13 02:37:16;;;;;;;;;6.33;6.00;;;;;23.49;45.92;101635.53;5058804;28;45560;-74
2022/07/13 02:39:41;;;;;;;;;9.00;9.00;;;;;23.55;45.98;101640.00;5059169;28;46688;-74
2022/07/13 02:42:06;;;;;;;;;7.00;7.00;;;;;23.57;45.84;101648.75;5050831;28;48793;-75
2022/07/13 02:44:32;;;;;;;;;6.00;6.00;;;;;23.60;46.11;101652.03;5041020;28;45634;-74
2022/07/13 02:46:57;;;;;;;;;4.67;4.67;;;;;23.56;46.61;101643.56;5040883;28;47216;-75
2022/07/13 02:49:22;;;;;;;;;8.33;7.00;;;;;23.55;46.01;101636.47;5058768;28;46072;-74
2022/07/13 02:51:48;;;;;;;;;8.00;7.00;;;;;23.57;46.31;101639.78;5059152;28;45217;-74
2022/07/13 02:54:13;;;;;;;;;7.33;6.00;;;;;23.56;46.66;101641.66;5058694;28;45297;-75
2022/07/13 02:56:38;;;;;;;;;7.33;7.33;;;;;23.57;46.69;101654.19;5059108;28;45479;-74
2022/07/13 02:59:04;;;;;;;;;6.33;6.33;;;;;23.60;46.52;101644.72;5050144;28;47308;-74
2022/07/13 03:01:29;;;;;;;;;8.00;8.00;;;;;23.60;46.47;101641.16;5058731;28;45477;-75
2022/07/13 03:03:54;;;;;;;;;7.00;7.00;;;;;23.58;46.52;101644.97;5040770;28;45412;-75
2022/07/13 03:06:19;;;;;;;;;5.00;5.00;;;;;23.60;45.83;101638.47;5058759;28;47752;-75
2022/07/13 03:08:45;;;;;;;;;7.00;6.00;;;;;23.60;46.16;101635.75;5058577;28;45368;-75
2022/07/13 03:11:10;;;;;;;;;7.00;7.00;;;;;23.56;46.17;101636.22;5058668;28;45379;-75
2022/07/13 03:13:35;;;;;;;;;7.67;7.00;;;;;23.54;46.23;101632.94;5058979;28;45328;-75
2022/07/13 03:16:01;;;;;;;;;6.33;5.33;;;;;23.54;46.33;101638.38;5062161;28;45403;-75
2022/07/13 03:18:26;;;;;;;;;4.00;3.00;;;;;23.50;46.84;101626.38;5060620;28;45413;-75
2022/07/13 03:20:51;;;;;;;;;6.00;5.00;;;;;23.49;46.73;101630.13;5058733;28;45370;-73
2022/07/13 03:23:16;;;;;;;;;5.00;5.00;;;;;23.45;46.59;101626.25;5053354;28;45394;-75
2022/07/13 03:25:42;;;;;;;;;5.67;5.67;;;;;23.50;46.49;101631.78;5058442;28;53103;-74
2022/07/13 03:28:07;;;;;;;;;5.33;5.33;;;;;23.47;47.30;101626.84;5040310;28;48373;-75
2022/07/13 03:30:32;;;;;;;;;7.00;6.00;;;;;23.50;46.55;101628.25;5040174;28;45426;-75
2022/07/13 03:32:58;;;;;;;;;4.67;4.67;;;;;23.47;46.97;101628.72;5040510;28;45307;-75
2022/07/13 03:35:23;;;;;;;;;8.67;7.33;;;;;23.45;47.51;101629.78;5058230;28;45509;-75
2022/07/13 03:37:49;;;;;;;;;7.00;5.33;;;;;23.41;47.33;101630.50;5058384;28;45766;-75
2022/07/13 03:40:15;;;;;;;;;6.00;5.67;;;;;23.42;48.01;101632.97;5059057;28;45331;-75
2022/07/13 03:42:40;;;;;;;;;7.00;7.00;;;;;23.39;48.17;101633.47;5061891;28;45330;-75
2022/07/13 03:45:06;;;;;;;;;5.33;4.67;;;;;23.39;48.13;101629.91;5061967;28;45331;-75
2022/07/13 03:47:31;;;;;;;;;8.00;6.67;;;;;23.38;48.49;101634.53;5061440;28;45506;-75
2022/07/13 03:49:57;;;;;;;;;8.33;7.00;;;;;23.32;48.10;101628.13;5061433;28;45242;-75
2022/07/13 03:52:22;;;;;;;;;6.00;6.00;;;;;23.38;48.47;101637.25;5062042;28;45209;-75
2022/07/13 03:54:47;;;;;;;;;6.00;6.00;;;;;23.36;48.46;101633.91;5061671;28;45255;-75
2022/07/13 03:57:13;;;;;;;;;3.67;3.67;;;;;23.37;48.59;101643.72;5061735;28;45585;-74
2022/07/13 03:59:38;;;;;;;;;7.67;7.67;;;;;23.35;48.27;101634.16;5061382;28;45308;-75
2022/07/13 04:02:03;;;;;;;;;7.00;5.00;;;;;23.32;48.18;101625.41;5061563;28;45319;-72
2022/07/13 04:04:29;;;;;;;;;8.67;8.67;;;;;23.39;48.03;101633.47;5061416;28;45521;-72
2022/07/13 04:06:54;;;;;;;;;8.67;6.00;;;;;23.39;48.53;101643.47;5061665;28;45677;-75
2022/07/13 04:09:19;;;;;;;;;7.00;7.00;;;;;23.38;48.76;101631.81;5053064;28;45579;-74
2022/07/13 04:11:45;;;;;;;;;5.67;5.67;;;;;23.35;49.02;101631.44;5061458;28;45434;-75
2022/07/13 04:14:10;;;;;;;;;10.00;7.00;;;;;23.36;48.75;101633.06;5061492;28;45316;-74
2022/07/13 04:16:35;;;;;;;;;6.00;5.00;;;;;23.37;48.74;101637.47;5048176;28;47183;-74
2022/07/13 04:19:01;;;;;;;;;8.00;7.33;;;;;23.38;48.23;101641.84;5061443;28;45339;-74
2022/07/13 04:21:26;;;;;;;;;5.67;5.67;;;;;23.39;48.65;101644.31;5054784;28;45537;-75
2022/07/13 04:23:52;;;;;;;;;7.33;7.33;;;;;23.41;49.53;101646.78;5046602;28;45911;-75
2022/07/13 04:26:17;;;;;;;;;7.67;6.33;;;;;23.39;49.24;101638.06;5042986;28;47345;-75
2022/07/13 04:28:43;;;;;;;;;7.67;6.00;;;;;23.38;49.39;101637.25;5060821;28;45477;-75
2022/07/13 04:31:08;;;;;;;;;7.00;7.00;;;;;23.40;49.09;101645.94;5061244;28;45336;-75
2022/07/13 04:33:34;;;;;;;;;7.00;7.00;;;;;23.40;49.42;101642.44;5060949;28;45803;-75
2022/07/13 04:35:59;;;;;;;;;8.67;7.00;;;;;23.36;49.66;101639.31;5047936;28;46981;-75
2022/07/13 04:38:25;;;;;;;;;9.00;8.00;;;;;23.41;49.09;101638.66;5060729;28;45316;-75
2022/07/13 04:40:50;;;;;;;;;5.33;5.33;;;;;23.41;49.62;101644.88;5061078;28;45824;-75
2022/07/13 04:43:15;;;;;;;;;6.67;6.67;;;;;23.42;49.85;101643.00;5060989;28;45316;-75
2022/07/13 04:45:41;;;;;;;;;6.00;6.00;;;;;23.41;49.63;101639.44;5060645;28;46539;-75
2022/07/13 04:48:06;;;;;;;;;5.67;4.33;;;;;23.44;49.98;101640.88;5060877;28;45380;-75
2022/07/13 04:50:31;;;;;;;;;8.00;8.00;;;;;23.45;50.03;101643.34;5060773;28;45265;-75
2022/07/13 04:52:57;;;;;;;;;9.67;8.00;;;;;23.46;50.63;101633.31;5059667;28;45257;-75
2022/07/13 04:55:22;;;;;;;;;6.33;5.00;;;;;23.52;50.81;101642.41;5060657;28;45599;-74
2022/07/13 04:57:48;;;;;;;;;5.67;5.67;;;;;23.53;50.51;101638.63;5055700;28;45382;-76
2022/07/13 05:00:13;;;;;;;;;7.00;7.00;;;;;23.57;50.40;101643.31;5042479;28;45154;-74
2022/07/13 05:02:38;;;;;;;;;6.00;6.00;;;;;23.61;50.73;101634.72;5060567;28;45213;-74
2022/07/13 05:05:06;;;;;;;;;9.33;9.00;;;;;23.64;50.40;101636.94;5045309;28;48066;-74
2022/07/13 05:07:31;;;;;;;;;6.00;6.00;;;;;23.67;50.72;101625.56;5060387;28;45320;-74
2022/07/13 05:09:57;;;;;;;;;6.00;6.00;;;;;23.73;50.44;101634.66;5060243;28;45338;-75
2022/07/13 05:12:22;;;;;;;;;66.50;57.00;;;;;23.71;50.44;101627.56;5060528;28;45495;-75
2022/07/13 05:14:48;;;;;;;;;8.33;7.33;;;;;23.76;49.97;101626.84;5042075;28;46859;-75
2022/07/13 05:17:13;;;;;;;;;8.00;8.00;;;;;23.78;50.69;101630.16;5047531;28;45894;-75
2022/07/13 05:19:38;;;;;;;;;6.00;6.00;;;;;23.83;50.50;101632.94;5060559;28;45479;-75
2022/07/13 05:22:04;;;;;;;;;5.67;5.67;;;;;23.85;50.64;101638.13;5060486;28;45348;-75
2022/07/13 05:24:29;;;;;;;;;7.33;7.33;;;;;23.89;50.37;101638.47;5038599;28;46866;-75
2022/07/13 05:26:55;;;;;;;;;9.00;7.00;;;;;23.88;50.33;101636.84;5058456;28;45634;-75
2022/07/13 05:29:20;;;;;;;;;9.67;9.00;;;;;23.90;50.03;101637.41;5060502;28;45732;-76
2022/07/13 05:31:45;;;;;;;;;7.33;5.67;;;;;23.93;50.09;101636.94;5060151;28;45642;-75
2022/07/13 05:34:10;;;;;;;;;9.33;8.00;;;;;23.94;50.58;101633.13;5041967;28;49945;-76
2022/07/13 05:36:36;;;;;;;;;7.00;5.67;;;;;23.99;50.64;101635.13;5060264;28;45273;-75
2022/07/13 05:39:02;;;;;;;;;8.67;8.33;;;;;24.01;50.47;101639.25;5060096;28;45319;-75
2022/07/13 05:41:27;;;;;;;;;9.00;8.67;;;;;24.06;50.45;101642.06;5060152;28;45453;-75
2022/07/13 05:43:53;;;;;;;;;8.67;7.33;;;;;24.08;50.97;101639.94;5052373;28;48086;-75
2022/07/13 05:46:18;;;;;;;;;7.00;7.00;;;;;24.12;51.11;101640.25;5059765;28;45411;-75
2022/07/13 05:48:43;;;;;;;;;7.00;6.67;;;;;24.18;50.96;101641.22;5060186;28;45330;-75
2022/07/13 05:51:09;;;;;;;;;7.67;7.67;;;;;24.26;50.57;101648.94;5055993;28;45572;-75
2022/07/13 05:53:34;;;;;;;;;9.33;9.33;;;;;24.29;50.74;101651.19;5059876;28;46711;-75
2022/07/13 05:55:59;;;;;;;;;10.00;9.33;;;;;24.31;51.34;101645.50;5053970;28;45525;-76
2022/07/13 05:58:25;;;;;;;;;8.00;8.00;;;;;24.38;50.89;101642.63;5060234;28;45331;-76
2022/07/13 06:00:50;;;;;;;;;9.00;8.33;;;;;24.42;50.80;101643.78;5051495;28;46052;-76
2022/07/13 06:03:16;;;;;;;;;8.00;6.00;;;;;24.50;50.78;101645.25;5059331;28;45420;-75
2022/07/13 06:05:41;;;;;;;;;7.00;6.67;;;;;24.52;50.52;101654.81;5059720;28;45563;-75
2022/07/13 06:08:06;;;;;;;;;8.00;8.00;;;;;24.59;50.71;101650.03;5041523;28;45416;-75
2022/07/13 06:10:32;;;;;;;;;9.33;8.00;;;;;24.66;50.11;101654.50;5059486;28;45285;-75
2022/07/13 06:12:57;;;;;;;;;8.00;8.00;;;;;24.71;50.15;101652.69;5059382;28;46509;-76
2022/07/13 06:15:22;;;;;;;;;9.67;9.67;;;;;24.77;49.89;101653.56;5059564;28;45292;-75
2022/07/13 06:17:48;;;;;;;;;10.00;9.00;;;;;24.83;50.39;101652.59;5065130;28;45282;-76
2022/07/13 06:20:13;;;;;;;;;9.33;8.33;;;;;24.91;50.06;101661.41;5059214;28;45303;-76
2022/07/13 06:22:38;;;;;;;;;6.00;6.00;;;;;24.96;49.81;101653.34;5059437;28;45712;-76
2022/07/13 06:25:04;;;;;;;;;6.00;5.67;;;;;25.03;49.36;101653.97;5059600;28;45335;-75
2022/07/13 06:27:30;;;;;;;;;6.33;6.33;;;;;25.06;47.89;101648.06;5059695;28;45265;-76
2022/07/13 06:29:55;;;;;;;;;6.33;6.33;;;;;25.16;48.83;101658.22;5059204;28;45178;-75
2022/07/13 06:32:20;;;;;;;;;7.00;7.00;;;;;25.18;48.48;101658.81;5040961;28;46969;-75
2022/07/13 06:34:46;;;;;;;;;7.00;7.00;;;;;25.21;47.94;101657.47;5059517;28;45445;-76
2022/07/13 06:37:11;;;;;;;;;6.67;6.33;;;;;25.28;48.00;101660.84;5059187;28;45659;-76
2022/07/13 06:39:36;;;;;;;;;6.33;6.33;;;;;25.34;46.92;101665.28;5037831;28;46827;-75
2022/07/13 06:42:02;;;;;;;;;5.00;5.00;;;;;25.37;46.64;101652.22;5051595;28;45538;-76
2022/07/13 06:44:28;;;;;;;;;8.00;8.00;;;;;25.38;46.53;101646.53;5058951;28;45355;-76
2022/07/13 06:46:53;;;;;;;;;7.67;7.33;;;;;25.45;46.55;101644.47;5059389;28;45562;-76
2022/07/13 06:49:18;;;;;;;;;5.33;5.33;;;;;25.56;46.51;101650.84;5058791;28;45332;-76
2022/07/13 06:51:43;;;;;;;;;5.00;5.00;;;;;25.63;46.67;101649.84;5059082;28;47884;-76
2022/07/13 06:54:09;;;;;;;;;7.67;7.67;;;;;25.66;46.80;101641.19;5059007;28;45293;-75
2022/07/13 06:56:34;;;;;;;;;5.67;5.67;;;;;25.75;46.67;101649.72;5059279;28;45450;-75
2022/07/13 06:59:00;;;;;;;;;8.00;6.67;;;;;25.74;46.25;101651.63;5059059;28;45340;-76
2022/07/13 07:01:25;;;;;;;;;10.00;6.67;;;;;25.75;46.36;101652.44;5058621;28;46452;-76
2022/07/13 07:03:50;;;;;;;;;7.00;6.33;;;;;25.81;46.10;101654.97;5058914;28;45375;-76
2022/07/13 07:06:15;;;;;;;;;6.67;6.67;;;;;25.82;46.28;101650.31;5058989;28;45250;-75
2022/07/13 07:08:41;;;;;;;;;4.00;4.00;;;;;25.83;46.04;101652.78;5058483;28;45367;-75
2022/07/13 07:11:06;;;;;;;;;7.00;6.00;;;;;25.84;46.73;101653.63;5040739;28;46992;-73
2022/07/13 07:13:31;;;;;;;;;5.67;5.67;;;;;25.86;46.02;101656.09;5058774;28;45375;-73
2022/07/13 07:15:59;;;;;;;;;5.33;5.33;;;;;25.91;45.16;101658.84;5063593;28;45277;-73
2022/07/13 07:18:24;;;;;;;;;9.33;9.00;;;;;25.96;44.63;101658.94;5046097;28;46172;-73
2022/07/13 07:20:50;;;;;;;;;6.67;6.67;;;;;25.97;45.31;101657.84;5062159;28;45867;-73
2022/07/13 07:23:16;;;;;;;;;8.33;6.67;;;;;26.01;44.85;101664.41;5061853;28;45446;-73
2022/07/13 07:25:41;;;;;;;;;11.33;10.00;;;;;26.00;44.89;101662.78;5062574;28;45248;-73
2022/07/13 07:28:07;;;;;;;;;8.00;6.67;;;;;26.02;44.66;101659.78;5062202;28;45320;-73
2022/07/13 07:30:33;;;;;;;;;7.00;6.00;;;;;26.02;45.42;101668.78;5060141;28;48233;-72
2022/07/13 07:32:58;;;;;;;;;8.67;8.67;;;;;26.01;45.65;101658.16;5061893;28;45482;-73
2022/07/13 07:35:24;;;;;;;;;8.67;8.67;;;;;26.06;44.82;101664.47;5062103;28;45262;-73
2022/07/13 07:37:49;;;;;;;;;5.33;5.33;;;;;26.08;45.02;101662.31;5061819;28;45469;-73
2022/07/13 07:40:14;;;;;;;;;6.67;6.00;;;;;26.11;45.04;101660.97;5040380;28;48073;-73
2022/07/13 07:42:40;;;;;;;;;7.00;7.00;;;;;26.16;44.82;101658.28;5059317;28;48080;-73
2022/07/13 07:45:06;;;;;;;;;10.67;10.33;;;;;26.18;43.84;101656.13;5050089;28;45349;-75
2022/07/13 07:47:32;;;;;;;;;7.67;7.00;;;;;26.28;44.46;101663.56;5043513;28;47308;-76
2022/07/13 07:49:57;;;;;;;;;8.33;7.00;;;;;26.34;44.43;101667.22;5043582;28;48262;-76
2022/07/13 07:52:22;;;;;;;;;9.00;8.00;;;;;26.41;45.02;101654.19;5061926;28;45303;-76
2022/07/13 07:54:48;;;;;;;;;7.00;7.00;;;;;26.55;44.99;101653.75;5066579;28;45554;-76
2022/07/13 07:57:14;;;;;;;;;9.67;8.00;;;;;26.63;43.88;101653.25;5052902;28;45661;-76
2022/07/13 07:59:41;;;;;;;;;7.67;7.00;;;;;26.77;44.11;101656.38;5048333;28;46600;-76
2022/07/13 08:02:07;;;;;;;;;5.33;5.33;;;;;26.91;43.55;101653.19;5063457;28;45359;-76
2022/07/13 08:04:32;;;;;;;;;6.67;6.67;;;;;27.08;43.65;101648.38;5049523;28;45308;-76
2022/07/13 08:06:57;;;;;;;;;8.33;7.00;;;;;27.22;43.11;101645.19;5063131;28;45241;-76
2022/07/13 08:09:23;;;;;;;;;7.00;7.00;;;;;27.37;42.26;101655.34;5062929;28;45362;-76
2022/07/13 08:11:48;;;;;;;;;8.67;8.00;;;;;27.44;42.76;101646.91;5063249;28;45371;-76
2022/07/13 08:14:14;;;;;;;;;9.00;7.67;;;;;27.64;43.61;101664.44;5067041;28;45239;-76
2022/07/13 08:16:39;;;;;;;;;8.33;6.00;;;;;27.76;42.81;101661.50;5066637;28;45295;-73
2022/07/13 08:19:05;;;;;;;;;5.33;5.00;;;;;27.79;41.98;101648.13;5061403;28;45488;-73
2022/07/13 08:21:30;;;;;;;;;7.00;7.00;;;;;27.87;43.00;101643.22;5061210;28;45490;-72
2022/07/13 08:23:55;;;;;;;;;8.00;8.00;;;;;27.97;42.70;101648.72;5047335;28;45320;-73
2022/07/13 08:26:28;;;;;;;;;9.33;8.00;;;;;28.10;42.84;101650.91;5060520;28;45501;-73
2022/07/13 08:28:55;;;;;;;;;7.00;7.00;;;;;28.21;42.16;101645.44;5046773;28;46638;-73
2022/07/13 08:31:22;;;;;;;;;6.33;5.33;;;;;28.29;41.91;101646.81;5042854;28;45364;-73
2022/07/13 08:39:17;;;;;;;;;6.67;6.67;;;;;28.65;40.60;101643.28;5060732;28;45817;-73
2022/07/13 08:41:42;;;;;;;;;6.67;6.00;;;;;28.79;41.46;101652.53;5061072;28;45395;-73
2022/07/13 08:44:08;;;;;;;;;6.00;6.00;;;;;28.89;40.78;101653.63;5041116;28;45332;-73
2022/07/13 08:46:33;;;;;;;;;9.00;8.00;;;;;28.90;40.05;101642.41;5060855;28;45531;-73
2022/07/13 08:49:00;;;;;;;;;6.00;6.00;;;;;28.95;40.88;101638.88;5060659;28;45749;-73
2022/07/13 08:51:26;;;;;;;;;8.33;8.33;;;;;29.00;40.15;101643.50;5060855;28;45447;-73
2022/07/13 08:53:53;;;;;;;;;7.67;6.67;;;;;29.06;40.32;101645.94;5051202;28;45402;-73
2022/07/13 08:56:19;;;;;;;;;5.00;5.00;;;;;29.11;39.08;101643.19;5060598;28;45255;-73
2022/07/13 08:58:44;;;;;;;;;8.33;6.00;;;;;29.15;39.72;101639.91;5039120;28;46590;-73
2022/07/13 09:01:11;;;;;;;;;7.00;7.00;;;;;29.21;40.03;101638.78;5055812;28;45508;-73
2022/07/13 09:03:37;;;;;;;;;5.67;5.67;;;;;29.22;39.92;101643.16;5061004;28;45556;-73
2022/07/13 09:06:02;;;;;;;;;4.00;4.00;;;;;29.20;40.41;101642.59;5060531;28;45645;-73
2022/07/13 09:08:28;;;;;;;;;7.33;7.33;;;;;29.11;39.03;101631.41;5060414;28;45789;-73
2022/07/13 09:11:01;;;;;;;;;6.67;6.67;;;;;29.11;39.11;101626.78;5051102;28;45400;-72
2022/07/13 09:13:36;;;;;;;;;7.67;7.67;;;;;29.15;39.76;101646.16;5060506;28;45339;-73
2022/07/13 09:16:14;;;;;;;;;8.33;7.33;;;;;29.19;40.44;101643.72;5063805;28;45509;-73
2022/07/13 09:18:40;;;;;;;;;9.00;9.00;;;;;29.21;39.93;101636.06;5060189;28;46162;-73
2022/07/13 09:21:06;;;;;;;;;6.00;6.00;;;;;29.20;40.14;101617.97;5060377;28;45213;-73
2022/07/13 09:23:32;;;;;;;;;7.33;7.33;;;;;29.27;39.80;101629.44;5042798;28;45340;-73
2022/07/13 09:25:57;;;;;;;;;5.67;5.67;;;;;29.30;39.51;101628.88;5060280;28;45349;-73
2022/07/13 09:28:22;;;;;;;;;6.67;6.67;;;;;29.38;38.07;101627.47;5054737;28;47984;-73
2022/07/13 09:30:48;;;;;;;;;8.33;8.00;;;;;29.45;38.00;101624.44;5041926;28;45242;-73
2022/07/13 09:33:13;;;;;;;;;6.00;6.00;;;;;29.53;37.08;101626.56;5060548;28;45341;-72
2022/07/13 09:35:38;;;;;;;;;9.33;8.00;;;;;29.65;37.47;101630.94;5060139;28;45621;-73
2022/07/13 09:38:04;;;;;;;;;8.00;7.00;;;;;29.68;37.00;101627.59;5059546;28;46261;-73
2022/07/13 09:40:29;;;;;;;;;8.00;6.33;;;;;29.73;36.94;101619.38;5059886;28;46991;-73
2022/07/13 09:46:08;;;;;;;;;9.00;7.00;;;;;29.79;36.69;101620.97;5060180;28;45517;-73
2022/07/13 09:48:24;;;;;;;;;6.00;5.00;;;;;29.95;34.69;101627.16;5059602;28;45383;-73
2022/07/13 09:50:57;;;;;;;;;4.00;4.00;;;;;30.03;33.92;101631.22;5059759;28;45437;-73
2022/07/13 09:53:31;;;;;;;;;5.00;5.00;;;;;30.16;34.13;101631.66;5059956;28;45363;-73
2022/07/13 09:55:59;;;;;;;;;5.67;4.67;;;;;30.28;33.25;101628.59;5039012;28;46521;-72
2022/07/13 09:58:28;;;;;;;;;4.67;4.67;;;;;30.40;33.83;101629.00;5059776;28;45276;-72
2022/07/13 10:00:56;;;;;;;;;5.67;5.67;;;;;30.52;33.06;101630.56;5059508;28;45407;-75
2022/07/13 10:03:22;;;;;;;;;8.00;5.00;;;;;30.60;32.50;101621.69;5059637;28;45325;-73
2022/07/13 10:05:51;;;;;;;;;5.00;5.00;;;;;30.72;31.11;101618.53;5041618;28;47043;-72
2022/07/13 10:08:17;;;;;;;;;6.00;6.00;;;;;30.86;33.11;101618.72;5059254;28;45372;-73
2022/07/13 10:10:44;;;;;;;;;7.67;5.67;;;;;31.00;33.32;101618.78;5059522;28;45339;-73
2022/07/13 10:13:11;;;;;;;;;6.00;5.00;;;;;31.12;32.45;101624.69;5059569;28;45567;-73
2022/07/13 10:15:37;;;;;;;;;6.00;6.00;;;;;31.21;30.13;101622.09;5059614;28;45269;-72
2022/07/13 10:18:07;;;;;;;;;5.00;5.00;;;;;31.35;30.95;101621.41;5064365;28;45743;-72
2022/07/13 10:20:34;;;;;;;;;6.33;5.67;;;;;31.49;31.31;101614.06;5059561;28;45492;-73
2022/07/13 10:23:00;;;;;;;;;5.67;5.67;;;;;31.60;28.48;101617.47;5037921;28;45420;-73
2022/07/13 10:25:41;;;;;;;;;5.33;5.33;;;;;31.81;30.10;101622.66;5054327;28;47373;-73
2022/07/13 10:28:09;;;;;;;;;6.33;5.00;;;;;31.98;29.46;101621.34;5052987;28;46036;-73
2022/07/13 10:30:34;;;;;;;;;6.00;6.00;;;;;32.08;28.13;101621.16;5059078;28;45387;-73
2022/07/13 10:33:22;;;;;;;;;5.00;5.00;;;;;32.25;28.63;101625.28;5059409;28;45272;-72
2022/07/13 10:35:55;;;;;;;;;7.00;6.00;;;;;32.35;29.04;101608.59;5046304;28;45547;-73
2022/07/13 10:38:27;;;;;;;;;7.67;7.67;;;;;32.52;28.60;101609.16;5040875;28;48646;-72
2022/07/13 10:41:21;;;;;;;;;5.00;5.00;;;;;32.73;28.13;101606.84;5059120;28;45397;-73
2022/07/13 10:44:23;;;;;;;;;6.67;6.67;;;;;32.95;27.87;101606.09;5059263;28;45237;-72
2022/07/13 10:46:49;;;;;;;;;7.00;7.00;;;;;33.09;28.39;101608.88;5048654;28;45526;-73
2022/07/13 10:49:33;;;;;;;;;7.00;7.00;;;;;33.24;28.51;101604.16;5058218;28;46626;-73
2022/07/13 10:55:03;;;;;;;;;7.33;7.33;;;;;33.76;27.71;101605.78;5058891;28;45469;-72
2022/07/13 10:57:33;;;;;;;;;6.00;6.00;;;;;33.93;27.18;101607.03;5058810;28;45609;-73
2022/07/13 11:00:21;;;;;;;;;4.33;3.67;;;;;34.16;25.55;101618.03;5058711;28;45724;-73
2022/07/13 11:03:02;;;;;;;;;5.00;5.00;;;;;34.32;24.91;101611.00;5040673;28;45923;-73
2022/07/13 11:05:34;;;;;;;;;6.67;6.00;;;;;34.48;25.90;101613.34;5059116;28;45332;-73
2022/07/13 11:08:14;;;;;;;;;7.00;5.67;;;;;34.74;25.14;101607.94;5058538;28;45282;-72
2022/07/13 11:10:40;;;;;;;;;7.00;6.33;;;;;34.92;23.26;101613.50;5058505;28;46145;-73
2022/07/13 11:13:12;;;;;;;;;8.00;7.00;;;;;35.04;24.81;101604.59;5058565;28;45288;-73
2022/07/13 11:15:54;;;;;;;;;6.33;5.00;;;;;35.27;25.06;101607.25;5059178;28;45329;-73
2022/07/13 11:18:22;;;;;;;;;5.00;5.00;;;;;35.49;24.83;101611.03;5061473;28;45373;-73
2022/07/13 11:21:00;;;;;;;;;7.00;6.00;;;;;35.67;24.35;101606.28;5053939;28;46849;-73
2022/07/13 11:26:32;;;;;;;;;4.67;4.67;;;;;36.00;24.63;101602.22;5058729;28;45252;-73
2022/07/13 11:29:22;;;;;;;;;7.00;5.67;;;;;36.12;24.91;101605.09;5045183;28;45217;-72
2022/07/13 11:31:55;;;;;;;;;6.00;6.00;;;;;36.23;24.76;101602.00;5052497;28;47488;-73
2022/07/13 11:34:21;;;;;;;;;6.33;6.33;;;;;36.35;24.55;101602.13;5046131;28;45427;-73
2022/07/13 11:36:46;;;;;;;;;6.67;5.67;;;;;36.49;23.64;101596.38;5058571;28;45405;-73